Time;durP1;ratioP1;P1;durP2;ratioP2;P2;SDS_P1;SDS_P2;PMS_P1;PMS_P2;Temp;Humidity;BMP_temperature;BMP_pressure;BME280_temperature;BME280_humidity;BME280_pressure;Samples;Min_cycle;Max_cycle;Signal;HPM_P1;HPM_P2
2022/02/10 00:06:42;;;;;;;2.50;1.43;;;8.70;99.90;8.60;101214.00;;;;4912657;28;88699;-67
2022/02/10 00:17:27;;;;;;;2.63;1.63;;;8.70;99.90;8.60;101211.00;;;;4954908;28;87930;-68
2022/02/10 00:26:00;;;;;;;2.43;1.20;;;8.60;99.90;8.50;101215.00;;;;4972916;28;87418;-68
2022/02/10 00:36:24;;;;;;;2.43;1.60;;;8.50;99.90;8.40;101206.00;;;;4972914;28;87813;-68
2022/02/10 00:38:59;;;;;;;2.03;1.30;;;8.50;99.90;8.40;101208.00;;;;4972808;28;89889;-68
2022/02/10 00:41:24;;;;;;;1.50;1.00;;;8.50;99.90;8.40;101204.00;;;;4970376;28;87757;-67
2022/02/10 00:43:50;;;;;;;1.70;1.47;;;8.50;99.90;8.40;101199.00;;;;4955220;28;107550;-67
2022/02/10 00:46:16;;;;;;;2.43;1.50;;;8.50;99.90;8.40;101207.00;;;;4975189;28;117800;-69
2022/02/10 00:48:41;;;;;;;4.20;1.17;;;8.50;99.90;8.40;101208.00;;;;4972313;28;116314;-67
2022/02/10 00:51:08;;;;;;;2.13;1.33;;;8.50;99.90;8.40;101205.00;;;;4975486;28;87086;-68
2022/02/10 00:53:38;;;;;;;2.93;1.43;;;8.50;99.90;8.40;101206.00;;;;4969213;28;87684;-69
2022/02/10 00:56:06;;;;;;;3.20;1.30;;;8.50;99.90;8.40;101199.00;;;;4955817;28;89268;-69
2022/02/10 00:58:33;;;;;;;2.73;1.40;;;8.40;99.90;8.30;101205.00;;;;4955338;28;88796;-69
2022/02/10 01:30:23;;;;;;;1.90;1.37;;;8.40;99.90;8.30;101169.00;;;;4954380;28;87856;-69
2022/02/10 01:32:54;;;;;;;2.00;1.70;;;8.40;99.90;8.30;101164.00;;;;4955728;28;109447;-70
2022/02/10 01:35:22;;;;;;;2.43;1.40;;;8.40;99.90;8.30;101170.00;;;;4975271;28;87919;-68
2022/02/10 01:37:48;;;;;;;2.83;1.60;;;8.40;99.90;8.30;101167.00;;;;4974902;28;89401;-69
2022/02/10 02:03:19;;;;;;;2.07;1.57;;;8.50;99.90;8.50;101143.00;;;;4971446;28;87918;-67
2022/02/10 02:04:25;;;;;;;1.80;1.67;;;8.60;99.90;8.50;101137.00;;;;4977424;28;88029;-67
2022/02/10 02:06:55;;;;;;;2.33;1.77;;;8.60;99.90;8.50;101136.00;;;;4978304;28;87863;-67
2022/02/10 02:09:21;;;;;;;2.27;1.60;;;8.60;99.90;8.50;101137.00;;;;4978041;28;88067;-67
2022/02/10 02:11:53;;;;;;;2.30;1.77;;;8.50;99.90;8.50;101125.00;;;;4977394;28;87916;-68
2022/02/10 02:14:22;;;;;;;2.17;1.57;;;8.50;99.90;8.50;101127.00;;;;4974405;28;87664;-67
2022/02/10 02:16:55;;;;;;;2.20;1.80;;;8.60;99.90;8.50;101124.00;;;;4964006;28;88724;-67
2022/02/10 02:19:22;;;;;;;1.93;1.60;;;8.60;99.90;8.50;101117.00;;;;4992316;28;87805;-67
2022/02/10 02:21:48;;;;;;;2.27;1.57;;;8.50;99.90;8.50;101116.00;;;;4975560;28;93278;-69
2022/02/10 02:24:20;;;;;;;1.40;1.30;;;8.60;99.90;8.50;101114.00;;;;4992582;28;87900;-68
2022/02/10 02:26:51;;;;;;;1.50;1.37;;;8.60;99.90;8.50;101119.00;;;;4977749;28;87485;-69
2022/02/10 02:29:25;;;;;;;3.30;1.67;;;8.50;99.90;8.50;101105.00;;;;4977027;28;87713;-69
2022/02/10 02:31:56;;;;;;;1.67;1.40;;;8.60;99.90;8.50;101104.00;;;;4992044;28;88003;-68
2022/02/10 02:34:47;;;;;;;1.30;1.20;;;8.60;99.90;8.50;101113.00;;;;4978043;28;87046;-68
2022/02/10 03:07:07;;;;;;;1.93;1.73;;;8.40;99.90;8.30;101075.00;;;;4974553;28;87831;-69
2022/02/10 03:09:39;;;;;;;2.13;1.67;;;8.40;99.90;8.30;101080.00;;;;4976006;28;88628;-69
2022/02/10 03:12:06;;;;;;;2.33;1.40;;;8.40;99.90;8.30;101073.00;;;;4975687;28;88370;-69
2022/02/10 03:14:36;;;;;;;1.37;1.10;;;8.40;99.90;8.30;101068.00;;;;4976569;28;89034;-68
2022/02/10 03:17:33;;;;;;;0.87;0.87;;;8.40;99.90;8.30;101062.00;;;;4977175;28;87787;-69
2022/02/10 04:01:35;;;;;;;1.40;1.30;;;8.20;99.90;8.10;101022.00;;;;4985969;28;87585;-70
2022/02/10 04:16:43;;;;;;;2.27;1.67;;;8.20;99.90;8.10;101010.00;;;;4953482;28;107977;-70
2022/02/10 04:22:04;;;;;;;1.47;1.37;;;8.20;99.90;8.10;101001.00;;;;4955137;28;87082;-70
2022/02/10 04:27:10;;;;;;;2.73;1.37;;;8.20;99.90;8.10;100999.00;;;;4972398;28;87871;-70
2022/02/10 04:30:09;;;;;;;2.30;1.63;;;8.20;99.90;8.10;100992.00;;;;4975525;28;88698;-69
2022/02/10 04:38:30;;;;;;;1.93;1.33;;;8.20;99.90;8.10;100997.00;;;;4953108;28;87771;-70
2022/02/10 04:53:26;;;;;;;1.97;1.43;;;8.20;99.90;8.10;100987.00;;;;4953462;28;87967;-69
2022/02/10 05:00:12;;;;;;;1.50;1.40;;;8.10;99.90;8.10;100970.00;;;;4972961;28;87835;-69
2022/02/10 05:05:41;;;;;;;1.77;1.47;;;8.20;99.90;8.10;100971.00;;;;4952355;28;100922;-69
2022/02/10 05:24:24;;;;;;;2.33;1.77;;;8.10;99.90;8.00;100960.00;;;;4954115;28;89240;-70
2022/02/10 05:31:32;;;;;;;2.00;1.67;;;8.10;99.90;8.00;100940.00;;;;4958998;28;87502;-71
2022/02/10 05:32:58;;;;;;;1.97;1.60;;;8.10;99.90;8.00;100945.00;;;;4978062;28;87957;-71
2022/02/10 05:35:42;;;;;;;2.43;1.90;;;8.10;99.90;8.00;100938.00;;;;4976207;28;90444;-70
2022/02/10 05:38:15;;;;;;;3.47;2.33;;;8.10;99.90;8.00;100938.00;;;;4977687;28;87882;-69
2022/02/10 05:59:26;;;;;;;1.57;0.90;;;8.00;99.90;7.90;100907.00;;;;4965046;28;87832;-70
2022/02/10 06:02:23;;;;;;;2.10;1.50;;;8.00;99.90;7.80;100899.00;;;;4978455;28;87808;-69
2022/02/10 06:51:16;;;;;;;1.30;1.17;;;7.10;99.90;7.00;100884.00;;;;4935300;28;88043;-70
2022/02/10 07:07:06;;;;;;;2.47;1.80;;;7.00;99.90;6.90;100865.00;;;;4935445;28;87806;-70
2022/02/10 07:09:59;;;;;;;2.97;1.40;;;7.00;99.90;6.90;100859.00;;;;4937569;28;88096;-70
2022/02/10 09:01:20;;;;;;;2.50;0.83;;;11.60;99.70;11.60;100781.00;;;;4951924;28;88624;-69
2022/02/10 09:17:19;;;;;;;2.70;1.57;;;12.20;94.50;12.40;100773.00;;;;4954570;28;87732;-69
2022/02/10 09:47:33;;;;;;;4.33;1.47;;;12.90;90.80;13.10;100743.00;;;;4953203;28;88892;-67
2022/02/10 09:55:53;;;;;;;4.00;1.93;;;14.30;79.80;14.40;100750.00;;;;4974713;28;88783;-68
2022/02/10 10:01:24;;;;;;;4.23;2.70;;;14.40;72.10;14.20;100731.00;;;;4966368;28;87858;-67
2022/02/10 10:04:09;;;;;;;2.47;1.63;;;14.20;73.90;14.20;100730.00;;;;4968768;28;89034;-68
2022/02/10 10:06:57;;;;;;;5.60;1.90;;;14.10;73.00;14.20;100720.00;;;;4955567;28;87866;-68
2022/02/10 10:15:45;;;;;;;3.97;1.93;;;14.30;70.60;14.30;100724.00;;;;4953607;28;87348;-68
2022/02/10 10:21:28;;;;;;;2.63;1.67;;;14.30;70.00;14.30;100717.00;;;;4977690;28;87769;-68
2022/02/10 10:24:25;;;;;;;2.33;1.80;;;14.30;70.20;14.30;100731.00;;;;4989068;28;88909;-69
2022/02/10 10:56:57;;;;;;;3.63;2.13;;;14.70;68.70;15.00;100697.00;;;;4962671;28;87651;-71
2022/02/10 11:36:25;;;;;;;2.72;2.10;;;16.30;61.30;16.50;100655.00;;;;4974726;28;87658;-71
2022/02/10 11:36:26;;;;;;;2.45;1.80;;;16.30;58.60;16.00;100638.00;;;;4955891;28;87657;-70
2022/02/10 11:39:14;;;;;;;2.17;1.38;;;16.00;59.00;15.80;100643.00;;;;4961973;28;87799;-70
2022/02/10 11:42:43;;;;;;;3.05;1.83;;;15.80;58.10;15.60;100613.00;;;;4975316;28;87747;-70
2022/02/10 12:33:30;;;;;;;2.40;1.52;;;14.90;60.50;14.80;100576.00;;;;4971060;28;87959;-70
2022/02/10 12:35:48;;;;;;;6.95;2.10;;;14.80;61.20;14.70;100581.00;;;;4969575;28;87688;-69
2022/02/10 13:48:12;;;;;;;4.23;2.77;;;11.30;75.00;11.10;100591.00;;;;4954531;28;87920;-66
2022/02/10 14:09:08;;;;;;;5.27;3.03;;;10.90;81.60;10.80;100608.00;;;;4970085;28;87958;-68
2022/02/10 14:10:26;;;;;;;3.20;2.67;;;10.60;90.80;10.40;100627.00;;;;4974726;28;88943;-67
2022/02/10 14:12:58;;;;;;;7.13;3.77;;;10.20;90.90;10.40;100637.00;;;;4977768;28;88453;-69
2022/02/10 14:15:37;;;;;;;3.23;2.93;;;10.50;91.40;10.30;100637.00;;;;4967530;28;87941;-67
2022/02/10 14:26:03;;;;;;;6.57;3.57;;;10.20;92.50;10.10;100641.00;;;;4953870;28;87719;-67
2022/02/10 14:28:31;;;;;;;5.43;3.03;;;10.10;92.90;10.00;100634.00;;;;4955956;28;86830;-67
2022/02/10 14:30:58;;;;;;;9.60;4.13;;;10.10;93.20;10.00;100655.00;;;;4956380;28;87796;-67
2022/02/10 14:33:30;;;;;;;6.37;3.70;;;10.00;93.50;10.00;100663.00;;;;4955802;28;87860;-68
2022/02/10 15:22:04;;;;;;;6.57;3.73;;;9.40;99.90;9.20;100690.00;;;;4974413;28;86849;-67
2022/02/10 16:16:14;;;;;;;6.83;4.80;;;8.70;99.90;8.70;100732.00;;;;4971877;28;87155;-66
2022/02/10 16:18:11;;;;;;;6.80;4.53;;;8.70;99.90;8.70;100735.00;;;;4974357;28;88042;-66
2022/02/10 16:20:36;;;;;;;7.87;4.47;;;8.70;99.90;8.70;100744.00;;;;4974558;28;87877;-66
2022/02/10 16:23:06;;;;;;;6.43;3.93;;;8.70;99.90;8.70;100744.00;;;;4972973;28;116443;-68
2022/02/10 16:25:36;;;;;;;8.20;4.67;;;8.70;99.90;8.70;100740.00;;;;4974049;28;87784;-67
2022/02/10 16:28:11;;;;;;;6.77;4.90;;;8.70;99.90;8.70;100753.00;;;;4972582;28;87946;-68
2022/02/10 16:30:38;;;;;;;5.33;4.17;;;8.70;99.90;8.60;100754.00;;;;4974456;28;87727;-68
2022/02/10 16:33:05;;;;;;;7.17;4.10;;;8.70;99.90;8.60;100766.00;;;;4973976;28;87956;-68
2022/02/10 16:35:31;;;;;;;7.00;4.63;;;8.70;99.90;8.50;100761.00;;;;4971784;28;87607;-67
2022/02/10 16:37:58;;;;;;;9.37;5.47;;;8.60;99.90;8.40;100756.00;;;;4989182;28;87899;-68
2022/02/10 16:40:24;;;;;;;12.90;5.70;;;8.50;99.90;8.30;100769.00;;;;4974558;28;88070;-66
2022/02/10 16:42:51;;;;;;;9.17;5.50;;;8.40;99.90;8.20;100766.00;;;;4973699;28;87788;-66
2022/02/10 16:45:18;;;;;;;8.23;4.17;;;8.40;99.90;8.10;100763.00;;;;4974189;28;87746;-68
2022/02/10 16:47:44;;;;;;;9.77;4.90;;;8.20;99.90;7.90;100763.00;;;;4973741;28;88721;-67
2022/02/10 16:50:10;;;;;;;8.10;5.30;;;8.10;99.90;7.80;100768.00;;;;4970391;28;87897;-66
2022/02/10 16:52:45;;;;;;;7.57;5.10;;;8.00;99.90;7.70;100757.00;;;;4954506;28;88879;-67
2022/02/10 16:55:34;;;;;;;9.07;4.93;;;7.90;99.90;7.60;100759.00;;;;4952416;28;87948;-67
2022/02/10 17:03:41;;;;;;;10.00;5.90;;;7.60;99.90;7.50;100761.00;;;;4952463;28;87809;-66
2022/02/10 17:14:07;;;;;;;8.57;6.03;;;7.60;99.90;7.40;100776.00;;;;4954851;28;87421;-69
2022/02/10 17:14:56;;;;;;;8.60;6.37;;;7.60;99.90;7.40;100764.00;;;;4952738;28;88789;-68
2022/02/10 17:25:14;;;;;;;14.23;6.43;;;7.60;99.90;7.50;100781.00;;;;4967863;28;87893;-67
2022/02/10 17:27:43;;;;;;;13.00;5.93;;;7.60;99.90;7.40;100793.00;;;;4970069;28;87722;-67
2022/02/10 17:46:15;;;;;;;11.13;6.67;;;7.40;99.90;7.30;100802.00;;;;4974624;28;88046;-67
2022/02/10 17:51:31;;;;;;;17.70;6.03;;;7.40;99.90;7.30;100803.00;;;;4975306;28;87649;-67
2022/02/10 17:54:01;;;;;;;8.87;5.03;;;7.40;99.90;7.30;100822.00;;;;4974332;28;89404;-66
2022/02/10 17:56:28;;;;;;;7.50;6.13;;;7.40;99.90;7.30;100823.00;;;;4956890;28;88206;-68
2022/02/10 17:58:54;;;;;;;7.13;6.37;;;7.40;99.90;7.30;100821.00;;;;4971019;28;87059;-67
2022/02/10 18:01:20;;;;;;;9.83;5.97;;;7.40;99.90;7.30;100825.00;;;;4956478;28;96197;-67
2022/02/10 18:03:47;;;;;;;9.17;6.47;;;7.40;99.90;7.30;100836.00;;;;4955861;28;118028;-68
2022/02/10 18:06:23;;;;;;;10.73;6.30;;;7.50;99.90;7.20;100839.00;;;;4970981;28;88882;-68
2022/02/10 18:12:02;;;;;;;5.87;5.00;;;7.30;99.90;7.20;100858.00;;;;4954669;28;87806;-68
2022/02/10 18:15:02;;;;;;;4.87;3.50;;;7.40;99.90;7.10;100866.00;;;;4956595;28;87780;-68
2022/02/10 18:17:14;;;;;;;4.20;2.43;;;7.30;99.90;7.10;100876.00;;;;4958779;28;88058;-69
2022/02/10 18:19:54;;;;;;;3.17;1.97;;;7.30;99.90;7.00;100879.00;;;;4955978;28;87763;-69
2022/02/10 19:10:48;;;;;;;6.60;4.27;;;6.20;99.90;6.00;100872.00;;;;4971435;28;87843;-69
2022/02/10 19:13:17;;;;;;;4.83;3.50;;;6.10;99.90;6.00;100867.00;;;;4974671;28;88072;-69
2022/02/10 19:15:43;;;;;;;2.97;2.07;;;6.10;99.90;5.90;100861.00;;;;4921468;28;1116027;-70
2022/02/10 19:18:11;;;;;;;1.17;1.10;;;6.10;99.90;5.90;100878.00;;;;4966025;28;87163;-70
2022/02/10 19:20:39;;;;;;;5.93;1.03;;;6.10;99.90;5.90;100868.00;;;;4990129;28;87768;-69
2022/02/10 19:23:07;;;;;;;2.03;1.00;;;6.00;99.90;5.90;100866.00;;;;4989868;28;87940;-68
2022/02/10 19:25:39;;;;;;;1.30;0.90;;;6.00;99.90;5.80;100868.00;;;;4954468;28;96960;-69
2022/02/10 19:28:07;;;;;;;2.23;1.03;;;6.00;99.90;5.80;100873.00;;;;4969122;28;87989;-68
2022/02/10 19:30:36;;;;;;;2.20;1.07;;;6.00;99.90;5.80;100867.00;;;;4955060;28;89019;-67
2022/02/10 19:33:10;;;;;;;2.50;1.10;;;5.90;99.90;5.80;100858.00;;;;4968084;28;88918;-68
2022/02/10 19:35:43;;;;;;;1.23;0.80;;;5.90;99.90;5.70;100872.00;;;;4966243;28;87714;-68
2022/02/10 19:38:11;;;;;;;1.10;1.00;;;5.90;99.90;5.70;100871.00;;;;4960481;28;88064;-68
2022/02/10 19:40:39;;;;;;;1.90;0.83;;;5.90;99.90;5.70;100868.00;;;;4974536;28;88186;-68
2022/02/10 19:43:05;;;;;;;1.77;1.07;;;5.90;99.90;5.70;100868.00;;;;4970807;28;87017;-68
2022/02/10 19:45:31;;;;;;;2.20;1.50;;;5.90;99.90;5.70;100865.00;;;;4960179;28;87648;-68
2022/02/10 19:47:57;;;;;;;2.27;1.20;;;5.90;99.90;5.70;100873.00;;;;4971383;28;88864;-68
2022/02/10 19:50:28;;;;;;;6.77;2.03;;;5.90;99.90;5.70;100869.00;;;;4953469;28;117831;-68
2022/02/10 19:52:59;;;;;;;1.87;1.23;;;5.90;99.90;5.80;100866.00;;;;4957441;28;87783;-68
2022/02/10 19:55:25;;;;;;;3.37;2.03;;;5.90;99.90;5.80;100864.00;;;;4975803;28;87772;-67
2022/02/10 19:58:00;;;;;;;4.97;2.90;;;5.90;99.90;5.80;100870.00;;;;4969100;28;88247;-67
2022/02/10 20:00:27;;;;;;;3.90;3.13;;;5.90;99.90;5.80;100879.00;;;;4954493;28;87877;-68
2022/02/10 20:02:54;;;;;;;6.20;4.00;;;5.90;99.90;5.80;100876.00;;;;4955076;28;87914;-68
2022/02/10 20:05:25;;;;;;;5.83;4.17;;;6.10;99.90;5.90;100879.00;;;;4954643;28;87906;-68
2022/02/10 20:07:52;;;;;;;9.40;4.40;;;6.00;99.90;5.90;100884.00;;;;4956323;28;87006;-68
2022/02/10 20:10:18;;;;;;;11.23;6.37;;;6.00;99.90;5.90;100888.00;;;;4970896;28;88335;-68
2022/02/10 20:12:45;;;;;;;9.17;5.20;;;6.00;99.90;5.90;100878.00;;;;4958740;28;94758;-68
2022/02/10 20:15:12;;;;;;;7.67;4.07;;;6.00;99.90;5.90;100890.00;;;;4963925;28;89017;-68
2022/02/10 20:17:39;;;;;;;5.50;4.00;;;6.00;99.90;5.90;100891.00;;;;4955706;28;89261;-68
2022/02/10 20:20:06;;;;;;;5.47;2.70;;;6.00;99.90;5.90;100891.00;;;;4970619;28;88186;-69
2022/02/10 20:22:39;;;;;;;3.53;2.13;;;6.10;99.90;6.00;100891.00;;;;4970816;28;87847;-68
2022/02/10 20:25:06;;;;;;;4.57;2.00;;;6.10;99.90;6.00;100895.00;;;;4956226;28;87622;-69
2022/02/10 20:27:33;;;;;;;4.87;1.47;;;6.10;99.90;6.00;100888.00;;;;4971437;28;89212;-69
2022/02/10 20:29:59;;;;;;;3.40;1.70;;;6.10;99.90;6.00;100884.00;;;;4955521;28;101366;-69
2022/02/10 20:32:26;;;;;;;6.97;1.93;;;6.10;99.90;6.00;100900.00;;;;4956918;28;110290;-69
2022/02/10 20:34:52;;;;;;;3.80;1.70;;;6.10;99.90;6.00;100893.00;;;;4957078;28;94324;-69
2022/02/10 20:37:18;;;;;;;2.30;1.80;;;6.10;99.90;6.00;100884.00;;;;4956144;28;88456;-69
2022/02/10 20:39:44;;;;;;;2.23;1.77;;;6.10;99.90;6.00;100882.00;;;;4956499;28;88907;-69
2022/02/10 20:42:16;;;;;;;4.77;1.70;;;6.20;99.90;6.00;100880.00;;;;4973551;28;87680;-68
2022/02/10 20:44:44;;;;;;;8.50;2.07;;;6.10;99.90;6.10;100873.00;;;;4973789;28;87787;-69
2022/02/10 20:47:10;;;;;;;2.07;1.23;;;6.20;99.90;6.10;100867.00;;;;4975551;28;88132;-69
2022/02/10 20:49:36;;;;;;;2.53;2.33;;;6.20;99.90;6.10;100872.00;;;;4974550;28;117369;-72
2022/02/10 20:52:02;;;;;;;2.90;1.97;;;6.30;99.90;6.20;100869.00;;;;4975505;28;87700;-72
2022/02/10 20:54:28;;;;;;;2.73;1.60;;;6.30;99.90;6.20;100869.00;;;;4975423;28;87823;-73
2022/02/10 20:56:54;;;;;;;4.73;1.67;;;6.30;99.90;6.20;100876.00;;;;4974484;28;117572;-72
2022/02/10 20:59:35;;;;;;;2.53;2.10;;;6.70;99.90;6.20;100869.00;;;;4974368;28;88171;-74
2022/02/10 21:02:10;;;;;;;2.27;1.80;;;6.60;99.90;6.20;100865.00;;;;4975576;28;87501;-72
2022/02/10 21:04:45;;;;;;;2.83;2.17;;;6.30;99.90;6.20;100871.00;;;;4974312;28;88630;-72
2022/02/10 21:07:19;;;;;;;2.93;2.07;;;6.30;99.90;6.30;100866.00;;;;4973410;28;90412;-72
2022/02/10 21:09:57;;;;;;;4.37;1.80;;;6.40;99.90;6.30;100860.00;;;;4958176;28;87704;-72
2022/02/10 21:12:28;;;;;;;3.17;2.00;;;6.40;99.90;6.30;100864.00;;;;4955619;28;87963;-72
2022/02/10 21:14:54;;;;;;;4.70;2.40;;;6.40;99.90;6.30;100856.00;;;;4955620;28;87929;-73
2022/02/10 21:17:24;;;;;;;3.23;1.87;;;6.40;99.90;6.30;100856.00;;;;4954193;28;88661;-73
2022/02/10 21:19:50;;;;;;;4.17;2.33;;;6.40;99.90;6.30;100855.00;;;;4968934;28;88282;-74
2022/02/10 21:22:19;;;;;;;3.37;2.60;;;6.40;99.90;6.40;100852.00;;;;4955378;28;87312;-77
2022/02/10 21:24:55;;;;;;;3.10;2.50;;;6.50;99.90;6.40;100854.00;;;;4954844;28;87812;-78
2022/02/10 21:27:28;;;;;;;2.30;1.90;;;6.50;99.90;6.40;100850.00;;;;4967996;28;88946;-78
2022/02/10 21:29:59;;;;;;;4.03;2.40;;;6.50;99.90;6.40;100862.00;;;;4952016;28;90303;-77
2022/02/10 21:32:27;;;;;;;6.27;2.37;;;6.50;99.90;6.40;100852.00;;;;4958228;28;87967;-77
2022/02/10 21:37:46;;;;;;;10.47;5.20;;;6.50;99.90;6.40;100837.00;;;;4983219;28;88064;-77
2022/02/10 21:48:37;;;;;;;4.70;4.00;;;6.40;99.90;6.30;100839.00;;;;4984181;28;87115;-77
2022/02/10 22:17:26;;;;;;;6.97;4.30;;;6.30;99.90;6.20;100838.00;;;;4968799;28;88008;-74
2022/02/10 22:19:58;;;;;;;4.77;4.13;;;6.30;99.90;6.20;100839.00;;;;4969627;28;87640;-75
2022/02/10 22:22:34;;;;;;;8.67;4.90;;;6.30;99.90;6.20;100835.00;;;;4956724;28;88732;-77
2022/02/10 22:25:04;;;;;;;6.83;4.50;;;6.30;99.90;6.20;100844.00;;;;4955604;28;87680;-77
2022/02/10 22:27:33;;;;;;;7.87;4.93;;;6.30;99.90;6.20;100848.00;;;;4988726;28;87993;-77
2022/02/10 22:30:05;;;;;;;11.83;6.17;;;6.30;99.90;6.20;100844.00;;;;4975261;28;87636;-77
2022/02/10 22:33:05;;;;;;;8.30;4.73;;;5.80;99.90;6.20;100839.00;;;;4971210;28;90587;-73
2022/02/10 22:35:17;;;;;;;13.20;6.43;;;6.30;99.90;6.10;100837.00;;;;4974682;28;87699;-77
2022/02/10 22:37:45;;;;;;;10.47;5.67;;;6.30;99.90;6.10;100846.00;;;;4989847;27;87790;-77
2022/02/10 22:40:36;;;;;;;14.23;5.77;;;6.30;99.90;6.10;100859.00;;;;4991399;28;87120;-75
2022/02/10 22:43:00;;;;;;;8.63;5.07;;;6.20;99.90;6.00;100851.00;;;;4975518;28;88362;-73
2022/02/10 22:45:26;;;;;;;8.03;5.83;;;6.20;99.90;6.00;100856.00;;;;4992594;28;87820;-73
2022/02/10 22:47:51;;;;;;;9.57;5.50;;;6.10;99.90;6.00;100855.00;;;;4974773;28;109428;-73
2022/02/10 22:50:17;;;;;;;7.40;4.87;;;6.20;99.90;6.00;100856.00;;;;4976396;28;118102;-72
2022/02/10 22:52:43;;;;;;;6.73;4.90;;;6.10;99.90;6.00;100869.00;;;;4975786;28;117319;-72
2022/02/10 22:55:08;;;;;;;8.07;5.17;;;6.10;99.90;6.00;100866.00;;;;4976222;28;110935;-72
2022/02/10 22:57:35;;;;;;;6.03;4.73;;;6.50;99.90;6.00;100863.00;;;;4976304;28;87701;-72
2022/02/10 23:00:06;;;;;;;6.27;5.03;;;6.10;99.90;6.00;100874.00;;;;4957310;28;88319;-71
2022/02/10 23:02:32;;;;;;;6.33;5.33;;;6.20;99.90;5.90;100866.00;;;;4969990;28;87775;-73
2022/02/10 23:04:58;;;;;;;6.13;4.90;;;6.10;99.90;5.90;100865.00;;;;4991132;28;87372;-73
2022/02/10 23:07:23;;;;;;;7.90;4.97;;;6.00;99.90;5.90;100870.00;;;;4975863;28;109185;-71
2022/02/10 23:09:53;;;;;;;9.13;5.77;;;6.00;99.90;5.80;100855.00;;;;4974692;28;117673;-74
2022/02/10 23:12:19;;;;;;;7.00;4.63;;;6.00;99.90;5.80;100864.00;;;;4974865;28;88742;-70
2022/02/10 23:14:44;;;;;;;6.10;4.73;;;5.90;99.90;5.80;100854.00;;;;4991438;28;88212;-71
2022/02/10 23:17:10;;;;;;;10.27;5.60;;;5.90;99.90;5.70;100873.00;;;;4976117;28;87738;-71
2022/02/10 23:19:39;;;;;;;8.40;4.93;;;5.80;99.90;5.70;100863.00;;;;4975892;28;104868;-71
2022/02/10 23:22:05;;;;;;;7.07;4.97;;;5.90;99.90;5.70;100869.00;;;;4975889;28;87768;-71
2022/02/10 23:24:30;;;;;;;7.77;5.53;;;5.80;99.90;5.70;100875.00;;;;4975493;28;111394;-72
2022/02/10 23:26:56;;;;;;;9.40;5.57;;;5.90;99.90;5.70;100869.00;;;;4976322;28;92377;-73
2022/02/10 23:29:22;;;;;;;5.97;4.43;;;5.80;99.90;5.70;100864.00;;;;4974243;28;98661;-74
2022/02/10 23:31:48;;;;;;;13.83;5.87;;;5.90;99.90;5.70;100868.00;;;;4975284;28;115927;-74
2022/02/10 23:34:14;;;;;;;6.57;4.30;;;5.80;99.90;5.70;100866.00;;;;4974283;28;87774;-73
2022/02/10 23:36:52;;;;;;;7.97;5.33;;;5.80;99.90;5.60;100870.00;;;;4956412;28;88737;-73
2022/02/10 23:39:30;;;;;;;6.77;4.63;;;5.70;99.90;5.60;100865.00;;;;4956738;28;88990;-76
2022/02/10 23:42:03;;;;;;;7.00;5.43;;;5.80;99.90;5.60;100862.00;;;;4971955;28;89617;-75
2022/02/10 23:44:35;;;;;;;9.47;4.47;;;5.80;99.90;5.60;100863.00;;;;4956934;28;88214;-76
2022/02/10 23:47:03;;;;;;;6.97;4.03;;;5.70;99.90;5.60;100867.00;;;;4986558;28;87748;-74
2022/02/10 23:49:33;;;;;;;6.00;4.03;;;5.70;99.90;5.50;100855.00;;;;4974902;28;87960;-74
2022/02/10 23:52:01;;;;;;;5.40;3.73;;;5.70;99.90;5.50;100863.00;;;;4956623;28;87893;-71
2022/02/10 23:54:32;;;;;;;5.10;3.50;;;5.60;99.90;5.40;100862.00;;;;4957283;28;87211;-73
2022/02/10 23:57:17;;;;;;;4.70;3.47;;;5.60;99.90;5.40;100855.00;;;;4956976;28;87962;-71
